Time;durP1;ratioP1;P1;durP2;ratioP2;P2;SDS_P1;SDS_P2;PMS_P1;PMS_P2;Temp;Humidity;BMP_temperature;BMP_pressure;BME280_temperature;BME280_humidity;BME280_pressure;Samples;Min_cycle;Max_cycle;Signal;HPM_P1;HPM_P2
2023/04/13 00:01:22;;;;;;;13.70;1.60;;;;;;;;;;4961157;28;20672;-66
2023/04/13 00:03:52;;;;;;;9.82;1.58;;;;;;;;;;5010672;28;20046;-66
2023/04/13 00:06:22;;;;;;;11.43;1.50;;;;;;;;;;4978084;28;20050;-66
2023/04/13 00:08:53;;;;;;;10.90;1.65;;;;;;;;;;5006713;28;20054;-66
2023/04/13 00:11:27;;;;;;;9.35;1.92;;;;;;;;;;5030661;28;20320;-66
2023/04/13 00:13:59;;;;;;;7.85;1.73;;;;;;;;;;5027404;28;20042;-66
2023/04/13 00:16:30;;;;;;;8.52;1.60;;;;;;;;;;5018671;28;20047;-66
2023/04/13 00:19:00;;;;;;;7.75;2.03;;;;;;;;;;5017571;28;20049;-66
2023/04/13 00:21:32;;;;;;;6.90;1.67;;;;;;;;;;4976226;28;20050;-66
2023/04/13 00:24:02;;;;;;;6.63;1.58;;;;;;;;;;4996364;28;20502;-65
2023/04/13 00:26:32;;;;;;;8.63;1.48;;;;;;;;;;4998050;28;20052;-66
2023/04/13 00:29:02;;;;;;;9.63;1.80;;;;;;;;;;4946051;28;20054;-66
2023/04/13 00:31:32;;;;;;;9.57;1.50;;;;;;;;;;4961247;28;20450;-66
2023/04/13 00:34:05;;;;;;;6.22;1.30;;;;;;;;;;4935197;29;20044;-66
2023/04/13 00:36:35;;;;;;;4.35;1.50;;;;;;;;;;4906531;29;20503;-65
2023/04/13 00:39:06;;;;;;;10.65;1.80;;;;;;;;;;4929811;28;20663;-66
2023/04/13 00:41:37;;;;;;;;;;;;;;;;;;4943182;28;20063;-66
2023/04/13 00:44:10;;;;;;;7.35;2.03;;;;;;;;;;4973487;28;20330;-66
2023/04/13 00:46:45;;;;;;;8.27;1.30;;;;;;;;;;4973308;28;20066;-66
2023/04/13 00:49:16;;;;;;;8.75;1.63;;;;;;;;;;4953602;28;20047;-66
2023/04/13 00:51:46;;;;;;;6.43;1.83;;;;;;;;;;4953978;29;20063;-66
2023/04/13 00:54:17;;;;;;;8.10;1.30;;;;;;;;;;4934719;29;20054;-66
2023/04/13 00:56:48;;;;;;;10.02;1.58;;;;;;;;;;4934633;29;20058;-66
2023/04/13 00:59:19;;;;;;;14.20;2.03;;;;;;;;;;4903122;29;20070;-66
2023/04/13 01:01:57;;;;;;;8.07;2.00;;;;;;;;;;4888629;29;20520;-66
2023/04/13 01:04:29;;;;;;;13.88;1.80;;;;;;;;;;4915463;29;20044;-66
2023/04/13 01:07:20;;;;;;;7.97;1.40;;;;;;;;;;4870099;29;20083;-66
2023/04/13 01:09:56;;;;;;;9.20;1.80;;;;;;;;;;4915732;29;20420;-66
2023/04/13 01:12:36;;;;;;;9.80;2.10;;;;;;;;;;4911791;29;20056;-66
2023/04/13 01:15:15;;;;;;;8.00;1.73;;;;;;;;;;4896251;29;20490;-66
2023/04/13 01:17:57;;;;;;;9.30;1.70;;;;;;;;;;4896547;29;20060;-66
2023/04/13 01:20:30;;;;;;;7.82;2.00;;;;;;;;;;4896320;29;20080;-66
2023/04/13 01:23:06;;;;;;;8.38;1.88;;;;;;;;;;4877666;29;20565;-66
2023/04/13 01:26:00;;;;;;;8.90;2.08;;;;;;;;;;4877007;29;20053;-66
2023/04/13 01:28:32;;;;;;;7.90;1.52;;;;;;;;;;4877437;29;20064;-66
2023/04/13 01:31:10;;;;;;;7.13;2.25;;;;;;;;;;4893837;29;20053;-66
2023/04/13 01:33:41;;;;;;;9.73;2.00;;;;;;;;;;4925530;29;20057;-66
2023/04/13 01:36:13;;;;;;;9.07;1.70;;;;;;;;;;4914476;29;20056;-66
2023/04/13 01:38:45;;;;;;;11.70;1.98;;;;;;;;;;4895101;29;20060;-65
2023/04/13 01:41:16;;;;;;;6.82;2.45;;;;;;;;;;4879432;29;20567;-66
2023/04/13 01:43:46;;;;;;;8.50;2.28;;;;;;;;;;4843575;29;20502;-66
2023/04/13 01:46:22;;;;;;;12.82;2.42;;;;;;;;;;4859064;29;20062;-66
2023/04/13 01:49:00;;;;;;;5.63;2.28;;;;;;;;;;4895559;29;20688;-66
2023/04/13 01:51:45;;;;;;;9.50;2.72;;;;;;;;;;4839268;29;20050;-66
2023/04/13 01:54:21;;;;;;;12.57;2.75;;;;;;;;;;4839873;29;20061;-66
2023/04/13 01:56:55;;;;;;;11.65;3.20;;;;;;;;;;4779185;29;20051;-66
2023/04/13 01:59:27;;;;;;;10.45;2.42;;;;;;;;;;4782026;29;20067;-66
2023/04/13 02:01:58;;;;;;;11.52;2.45;;;;;;;;;;4803398;29;20162;-66
2023/04/13 02:04:32;;;;;;;14.38;3.65;;;;;;;;;;4788898;29;20062;-66
2023/04/13 02:07:02;;;;;;;11.55;3.22;;;;;;;;;;4785112;29;20063;-66
2023/04/13 02:09:37;;;;;;;20.80;3.47;;;;;;;;;;4809735;29;20061;-66
2023/04/13 02:12:07;;;;;;;10.90;3.55;;;;;;;;;;4803397;29;20058;-66
2023/04/13 02:14:39;;;;;;;14.32;3.20;;;;;;;;;;4839387;29;20058;-66
2023/04/13 02:17:09;;;;;;;14.27;3.55;;;;;;;;;;4821352;29;20073;-66
2023/04/13 02:19:40;;;;;;;8.70;2.72;;;;;;;;;;4792307;29;20449;-66
2023/04/13 02:22:11;;;;;;;15.20;2.90;;;;;;;;;;4785330;29;20075;-66
2023/04/13 02:24:41;;;;;;;14.07;3.08;;;;;;;;;;4785250;29;20055;-66
2023/04/13 02:27:11;;;;;;;16.67;4.07;;;;;;;;;;4749482;30;20060;-66
2023/04/13 02:29:42;;;;;;;13.85;3.17;;;;;;;;;;4731528;30;20064;-66
2023/04/13 02:32:12;;;;;;;13.50;3.72;;;;;;;;;;4756704;30;20064;-67
2023/04/13 02:34:42;;;;;;;15.13;4.18;;;;;;;;;;4755657;30;20056;-67
2023/04/13 02:37:14;;;;;;;9.18;3.33;;;;;;;;;;4717554;30;20068;-66
2023/04/13 02:39:45;;;;;;;11.00;2.80;;;;;;;;;;4751310;30;20561;-66
2023/04/13 02:42:16;;;;;;;12.82;3.22;;;;;;;;;;4775323;30;20055;-66
2023/04/13 02:44:46;;;;;;;11.15;3.53;;;;;;;;;;4785536;29;20055;-66
2023/04/13 02:47:17;;;;;;;12.82;3.30;;;;;;;;;;4784666;30;20532;-66
2023/04/13 02:49:48;;;;;;;8.23;2.80;;;;;;;;;;4821009;29;20053;-66
2023/04/13 02:52:26;;;;;;;13.43;3.97;;;;;;;;;;4802626;29;20054;-66
2023/04/13 02:55:04;;;;;;;9.63;3.00;;;;;;;;;;4829030;29;20050;-66
2023/04/13 02:57:46;;;;;;;10.98;2.78;;;;;;;;;;4863323;29;20098;-66
2023/04/13 03:00:17;;;;;;;10.57;2.85;;;;;;;;;;4838887;29;20050;-66
2023/04/13 03:02:53;;;;;;;11.63;2.67;;;;;;;;;;4810428;29;20065;-66
2023/04/13 03:05:27;;;;;;;6.53;2.70;;;;;;;;;;4790966;29;20462;-66
2023/04/13 03:07:58;;;;;;;8.88;2.45;;;;;;;;;;4847795;29;20446;-65
2023/04/13 03:10:30;;;;;;;12.00;2.72;;;;;;;;;;4856989;29;20098;-65
2023/04/13 03:13:01;;;;;;;11.10;2.83;;;;;;;;;;4824859;29;20047;-65
2023/04/13 03:15:31;;;;;;;10.30;3.75;;;;;;;;;;4778791;29;20552;-65
2023/04/13 03:18:02;;;;;;;11.40;3.30;;;;;;;;;;4757499;29;20075;-65
2023/04/13 03:20:35;;;;;;;12.07;2.95;;;;;;;;;;4762552;30;20056;-65
2023/04/13 03:23:06;;;;;;;11.90;3.60;;;;;;;;;;4733834;30;20060;-65
2023/04/13 03:25:38;;;;;;;9.48;3.05;;;;;;;;;;4762104;30;20072;-65
2023/04/13 03:28:08;;;;;;;11.77;3.38;;;;;;;;;;4766306;30;20071;-65
2023/04/13 03:30:42;;;;;;;9.77;2.60;;;;;;;;;;4735222;30;20530;-65
2023/04/13 03:33:12;;;;;;;13.93;2.53;;;;;;;;;;4747893;30;20048;-65
2023/04/13 03:35:43;;;;;;;7.35;2.30;;;;;;;;;;4759347;30;20520;-65
2023/04/13 03:38:21;;;;;;;7.90;2.42;;;;;;;;;;4765927;30;20068;-65
2023/04/13 03:40:52;;;;;;;9.05;2.63;;;;;;;;;;4763206;30;20072;-65
2023/04/13 03:43:22;;;;;;;8.50;2.05;;;;;;;;;;4783635;29;20062;-65
2023/04/13 03:46:00;;;;;;;7.90;2.03;;;;;;;;;;4801710;29;20552;-65
2023/04/13 03:48:32;;;;;;;6.95;1.98;;;;;;;;;;4819978;29;20058;-65
2023/04/13 03:51:05;;;;;;;7.28;2.40;;;;;;;;;;4841238;29;20072;-65
2023/04/13 03:53:52;;;;;;;10.98;2.40;;;;;;;;;;4856400;29;20064;-65
2023/04/13 03:56:26;;;;;;;8.35;2.17;;;;;;;;;;4837386;29;20069;-65
2023/04/13 03:58:56;;;;;;;3.60;1.80;;;;;;;;;;4819512;29;20053;-65
2023/04/13 04:01:27;;;;;;;9.55;2.30;;;;;;;;;;4759029;30;20055;-65
2023/04/13 04:03:57;;;;;;;5.25;2.25;;;;;;;;;;4784562;29;20505;-65
2023/04/13 04:06:30;;;;;;;8.00;2.22;;;;;;;;;;4815511;29;20439;-65
2023/04/13 04:09:19;;;;;;;6.93;2.03;;;;;;;;;;4819787;29;20563;-65
2023/04/13 04:11:50;;;;;;;5.57;2.10;;;;;;;;;;4773773;29;20059;-65
2023/04/13 04:14:27;;;;;;;8.27;1.95;;;;;;;;;;4783453;29;20062;-65
2023/04/13 04:17:09;;;;;;;6.57;2.60;;;;;;;;;;4775484;29;20055;-65
2023/04/13 04:19:39;;;;;;;7.63;2.80;;;;;;;;;;4819601;29;20531;-65
2023/04/13 04:22:12;;;;;;;9.52;2.63;;;;;;;;;;4811156;29;20181;-65
2023/04/13 04:24:42;;;;;;;6.93;2.67;;;;;;;;;;4816183;29;20055;-65
2023/04/13 04:27:14;;;;;;;10.57;3.03;;;;;;;;;;4790783;29;20070;-65
2023/04/13 04:29:48;;;;;;;6.60;2.28;;;;;;;;;;4819854;29;20046;-65
2023/04/13 04:32:29;;;;;;;5.07;2.25;;;;;;;;;;4833016;29;20558;-65
2023/04/13 04:35:02;;;;;;;9.20;2.10;;;;;;;;;;4811470;29;20527;-65
2023/04/13 04:37:37;;;;;;;6.13;2.33;;;;;;;;;;4766845;30;20534;-65
2023/04/13 04:40:14;;;;;;;6.90;2.40;;;;;;;;;;4764198;30;20060;-65
2023/04/13 04:42:45;;;;;;;8.13;3.03;;;;;;;;;;4801006;29;20062;-65
2023/04/13 04:45:26;;;;;;;12.07;3.00;;;;;;;;;;4774233;30;20056;-65
2023/04/13 04:47:59;;;;;;;5.40;2.05;;;;;;;;;;4771280;30;20059;-65
2023/04/13 04:50:29;;;;;;;6.70;2.35;;;;;;;;;;4769239;29;20056;-65
2023/04/13 04:53:07;;;;;;;8.68;3.38;;;;;;;;;;4776813;29;20395;-65
2023/04/13 04:55:38;;;;;;;6.78;2.50;;;;;;;;;;4762482;30;20071;-65
2023/04/13 04:58:18;;;;;;;9.93;1.98;;;;;;;;;;4783131;30;20056;-65
2023/04/13 05:00:52;;;;;;;5.65;2.22;;;;;;;;;;4800997;29;20062;-65
2023/04/13 05:03:22;;;;;;;10.05;2.55;;;;;;;;;;4817202;29;20065;-65
2023/04/13 05:06:02;;;;;;;8.60;2.05;;;;;;;;;;4793265;29;20066;-65
2023/04/13 05:08:33;;;;;;;7.40;2.50;;;;;;;;;;4819216;29;20058;-65
2023/04/13 05:11:06;;;;;;;9.73;2.25;;;;;;;;;;4822592;29;20193;-65
2023/04/13 05:13:36;;;;;;;6.95;2.30;;;;;;;;;;4822322;29;20050;-65
2023/04/13 05:16:22;;;;;;;10.40;2.03;;;;;;;;;;4769388;30;20055;-65
2023/04/13 05:18:54;;;;;;;7.20;2.53;;;;;;;;;;4786055;29;20064;-65
2023/04/13 05:21:43;;;;;;;8.10;2.55;;;;;;;;;;4768558;30;20064;-65
2023/04/13 05:24:13;;;;;;;7.55;2.60;;;;;;;;;;4760312;30;20060;-65
2023/04/13 05:26:43;;;;;;;8.93;2.45;;;;;;;;;;4767505;30;20446;-65
2023/04/13 05:29:20;;;;;;;11.35;3.03;;;;;;;;;;4786057;30;20496;-65
2023/04/13 05:31:51;;;;;;;;;;;;;;;;;;4771614;30;20059;-65
2023/04/13 05:34:22;;;;;;;6.63;2.03;;;;;;;;;;4788802;29;19932;-65
2023/04/13 05:37:08;;;;;;;8.75;1.70;;;;;;;;;;4793949;29;20054;-65
2023/04/13 05:39:38;;;;;;;6.63;1.88;;;;;;;;;;4750964;30;20079;-65
2023/04/13 05:42:10;;;;;;;4.80;1.80;;;;;;;;;;4732506;30;20193;-65
2023/04/13 05:44:44;;;;;;;4.20;2.03;;;;;;;;;;4746048;30;20053;-65
2023/04/13 05:47:21;;;;;;;6.22;2.33;;;;;;;;;;4785495;29;20100;-65
2023/04/13 05:49:56;;;;;;;7.13;2.70;;;;;;;;;;4771167;29;20058;-65
2023/04/13 05:52:26;;;;;;;8.50;2.67;;;;;;;;;;4803241;29;20055;-65
2023/04/13 05:54:56;;;;;;;8.23;1.98;;;;;;;;;;4743605;29;20077;-65
2023/04/13 05:57:26;;;;;;;9.68;2.55;;;;;;;;;;4770484;30;20055;-65
2023/04/13 05:59:57;;;;;;;6.50;2.05;;;;;;;;;;4803378;29;20440;-65
2023/04/13 06:02:40;;;;;;;7.93;2.00;;;;;;;;;;4763516;29;20075;-64
2023/04/13 06:05:13;;;;;;;5.97;2.08;;;;;;;;;;4785357;29;20058;-65
2023/04/13 06:07:45;;;;;;;7.03;2.08;;;;;;;;;;4756843;29;20057;-65
2023/04/13 06:10:15;;;;;;;6.93;1.98;;;;;;;;;;4757186;30;20056;-65
2023/04/13 06:12:47;;;;;;;5.88;2.30;;;;;;;;;;4749351;30;20409;-65
2023/04/13 06:15:18;;;;;;;;;;;;;;;;;;4732356;30;20064;-65
2023/04/13 06:17:51;;;;;;;5.60;2.40;;;;;;;;;;4758176;30;19932;-65
2023/04/13 06:20:22;;;;;;;6.47;2.35;;;;;;;;;;4774806;29;20059;-64
2023/04/13 06:23:12;;;;;;;8.65;2.60;;;;;;;;;;4796952;29;20085;-65
2023/04/13 06:25:43;;;;;;;7.28;2.40;;;;;;;;;;4785014;29;20051;-65
2023/04/13 06:28:18;;;;;;;10.57;2.65;;;;;;;;;;4771001;29;20065;-65
2023/04/13 06:30:51;;;;;;;9.77;2.40;;;;;;;;;;4781279;30;20055;-65
2023/04/13 06:33:22;;;;;;;6.93;2.47;;;;;;;;;;4781339;29;20059;-65
2023/04/13 06:35:52;;;;;;;4.95;2.08;;;;;;;;;;4723063;30;20056;-65
2023/04/13 06:38:23;;;;;;;8.00;2.22;;;;;;;;;;4781343;29;20067;-65
2023/04/13 06:41:02;;;;;;;10.38;2.20;;;;;;;;;;4802954;29;20059;-65
2023/04/13 06:43:36;;;;;;;6.30;2.25;;;;;;;;;;4766935;30;20059;-65
2023/04/13 06:46:19;;;;;;;4.65;2.03;;;;;;;;;;4754093;30;20449;-65
2023/04/13 06:48:51;;;;;;;;;;;;;;;;;;4734096;30;20077;-65
2023/04/13 06:51:25;;;;;;;6.25;2.50;;;;;;;;;;4747006;30;19934;-64
2023/04/13 06:53:58;;;;;;;6.90;2.38;;;;;;;;;;4731297;30;20064;-65
2023/04/13 06:56:28;;;;;;;5.45;2.13;;;;;;;;;;4737208;30;20091;-65
2023/04/13 06:59:00;;;;;;;6.10;2.53;;;;;;;;;;4746908;30;20060;-64
2023/04/13 07:01:32;;;;;;;5.40;2.00;;;;;;;;;;4748391;30;20082;-64
2023/04/13 07:04:02;;;;;;;7.45;2.17;;;;;;;;;;4731138;30;20064;-64
2023/04/13 07:06:33;;;;;;;5.32;1.92;;;;;;;;;;4702122;30;20053;-64
2023/04/13 07:09:03;;;;;;;5.07;2.25;;;;;;;;;;4741292;30;20052;-64
2023/04/13 07:11:33;;;;;;;5.93;2.20;;;;;;;;;;4710725;30;20065;-65
2023/04/13 07:14:03;;;;;;;6.18;2.00;;;;;;;;;;4748538;30;20064;-64
2023/04/13 07:16:33;;;;;;;7.28;2.25;;;;;;;;;;4749043;30;20064;-64
2023/04/13 07:19:02;;;;;;;10.85;2.65;;;;;;;;;;4748722;30;20060;-65
2023/04/13 07:21:32;;;;;;;6.70;2.47;;;;;;;;;;4731768;30;20052;-64
2023/04/13 07:24:04;;;;;;;9.18;2.47;;;;;;;;;;4713308;30;20060;-65
2023/04/13 07:26:38;;;;;;;;;;;;;;;;;;4704609;30;20061;-64
2023/04/13 07:29:12;;;;;;;6.43;2.70;;;;;;;;;;4713571;30;20355;-64
2023/04/13 07:31:49;;;;;;;13.90;3.60;;;;;;;;;;4729951;30;20067;-64
2023/04/13 07:34:19;;;;;;;11.13;4.60;;;;;;;;;;4748341;30;20055;-64
2023/04/13 07:36:50;;;;;;;11.77;3.83;;;;;;;;;;4758487;30;20060;-65
2023/04/13 07:39:22;;;;;;;8.68;3.33;;;;;;;;;;4750614;30;20452;-65
2023/04/13 07:41:53;;;;;;;6.28;2.88;;;;;;;;;;4756167;30;20056;-64
2023/04/13 07:44:38;;;;;;;9.75;2.75;;;;;;;;;;4772053;30;20044;-64
2023/04/13 07:47:11;;;;;;;5.93;2.10;;;;;;;;;;4763873;30;20066;-64
2023/04/13 07:49:44;;;;;;;10.63;2.60;;;;;;;;;;4769148;30;20078;-64
2023/04/13 07:52:19;;;;;;;8.35;2.67;;;;;;;;;;4756476;30;20055;-64
2023/04/13 07:54:51;;;;;;;12.77;2.80;;;;;;;;;;4780862;30;20525;-64
2023/04/13 07:57:23;;;;;;;5.97;2.55;;;;;;;;;;4765446;30;20062;-64
2023/04/13 07:59:59;;;;;;;8.57;3.03;;;;;;;;;;4750996;30;20055;-64
2023/04/13 08:02:29;;;;;;;7.03;2.45;;;;;;;;;;4748504;30;20417;-64
2023/04/13 08:05:00;;;;;;;7.35;2.30;;;;;;;;;;4797804;29;20059;-64
2023/04/13 08:07:31;;;;;;;6.88;1.92;;;;;;;;;;4801440;29;20432;-64
2023/04/13 08:10:03;;;;;;;14.00;3.03;;;;;;;;;;4793415;29;20424;-64
2023/04/13 08:12:33;;;;;;;6.00;2.30;;;;;;;;;;4753896;30;20070;-64
2023/04/13 08:15:03;;;;;;;8.13;2.78;;;;;;;;;;4780548;30;20442;-65
2023/04/13 08:17:34;;;;;;;9.68;2.95;;;;;;;;;;4780189;30;20060;-64
2023/04/13 08:20:07;;;;;;;13.07;2.85;;;;;;;;;;4783275;30;20063;-64
2023/04/13 08:22:38;;;;;;;11.05;4.38;;;;;;;;;;4783098;30;20055;-64
2023/04/13 08:25:08;;;;;;;6.18;2.70;;;;;;;;;;4783641;30;20066;-64
2023/04/13 08:27:39;;;;;;;9.68;3.25;;;;;;;;;;4801115;29;20047;-64
2023/04/13 08:30:13;;;;;;;10.27;3.25;;;;;;;;;;4801420;29;20066;-65
2023/04/13 08:32:51;;;;;;;6.10;2.75;;;;;;;;;;4808610;29;20408;-65
2023/04/13 08:35:23;;;;;;;9.13;2.65;;;;;;;;;;4826017;29;20057;-64
2023/04/13 08:37:53;;;;;;;9.25;3.58;;;;;;;;;;4830019;29;20131;-64
2023/04/13 08:40:24;;;;;;;9.90;3.10;;;;;;;;;;4831912;29;20066;-64
2023/04/13 08:43:00;;;;;;;11.82;3.03;;;;;;;;;;4822620;29;20054;-64
2023/04/13 08:45:32;;;;;;;12.00;3.15;;;;;;;;;;4822762;29;20057;-64
2023/04/13 08:48:03;;;;;;;9.48;2.50;;;;;;;;;;4806296;29;20183;-65
2023/04/13 08:50:37;;;;;;;9.20;3.53;;;;;;;;;;4837055;29;20054;-64
2023/04/13 08:53:09;;;;;;;9.50;3.50;;;;;;;;;;4798393;29;20059;-64
2023/04/13 08:55:46;;;;;;;8.30;2.47;;;;;;;;;;4780720;29;20432;-64
2023/04/13 08:58:21;;;;;;;13.88;4.18;;;;;;;;;;4791180;29;20051;-64
2023/04/13 09:00:51;;;;;;;9.68;3.95;;;;;;;;;;4822368;29;20054;-64
2023/04/13 09:03:28;;;;;;;15.07;4.32;;;;;;;;;;4781429;30;20060;-64
2023/04/13 09:06:03;;;;;;;13.50;4.70;;;;;;;;;;4767746;30;20502;-64
2023/04/13 09:08:36;;;;;;;15.15;6.28;;;;;;;;;;4818236;29;20153;-64
2023/04/13 09:11:08;;;;;;;17.08;5.75;;;;;;;;;;4748185;30;20052;-64
2023/04/13 09:13:38;;;;;;;23.92;7.28;;;;;;;;;;4781644;30;20047;-64
2023/04/13 09:16:08;;;;;;;19.95;6.90;;;;;;;;;;4804105;29;20074;-64
2023/04/13 09:18:55;;;;;;;20.90;7.72;;;;;;;;;;4803952;29;20055;-64
2023/04/13 09:21:37;;;;;;;19.40;7.10;;;;;;;;;;4804335;29;20069;-65
2023/04/13 09:24:08;;;;;;;19.15;6.55;;;;;;;;;;4804088;29;20051;-64
2023/04/13 09:26:42;;;;;;;15.70;5.53;;;;;;;;;;4804274;29;20066;-64
2023/04/13 09:29:17;;;;;;;12.90;5.25;;;;;;;;;;4791615;29;20106;-65
2023/04/13 09:31:47;;;;;;;9.20;3.15;;;;;;;;;;4819982;29;20079;-64
2023/04/13 09:34:27;;;;;;;8.07;3.03;;;;;;;;;;4802545;29;20507;-63
2023/04/13 09:36:57;;;;;;;9.98;2.80;;;;;;;;;;4825067;29;20512;-62
2023/04/13 09:39:29;;;;;;;9.45;2.70;;;;;;;;;;4854666;29;20080;-62
2023/04/13 09:42:09;;;;;;;10.48;3.30;;;;;;;;;;4886541;29;20108;-63
2023/04/13 09:44:39;;;;;;;;;;;;;;;;;;4877759;29;20057;-63
2023/04/13 09:47:11;;;;;;;7.43;2.70;;;;;;;;;;4877246;29;19931;-63
2023/04/13 09:49:42;;;;;;;9.95;2.88;;;;;;;;;;4893397;29;20061;-63
2023/04/13 09:52:39;;;;;;;7.57;2.92;;;;;;;;;;4880770;29;20446;-62
2023/04/13 09:55:17;;;;;;;10.27;3.70;;;;;;;;;;4845090;29;20407;-62
2023/04/13 09:57:47;;;;;;;8.68;3.60;;;;;;;;;;4896066;29;20527;-63
2023/04/13 10:00:20;;;;;;;8.90;3.55;;;;;;;;;;4896006;29;20053;-62
2023/04/13 10:02:51;;;;;;;9.05;3.80;;;;;;;;;;4895988;29;20429;-62
2023/04/13 10:05:24;;;;;;;13.32;4.15;;;;;;;;;;4895868;29;20064;-62
2023/04/13 10:07:57;;;;;;;16.33;5.20;;;;;;;;;;4864781;29;20056;-62
2023/04/13 10:10:28;;;;;;;11.95;5.15;;;;;;;;;;4849364;29;20056;-62
2023/04/13 10:13:02;;;;;;;14.63;5.18;;;;;;;;;;4895693;29;20065;-63
2023/04/13 10:16:16;;;;;;;12.95;4.53;;;;;;;;;;4864311;29;20053;-62
2023/04/13 10:19:19;;;;;;;15.32;4.75;;;;;;;;;;4877078;29;20509;-63
2023/04/13 10:21:50;;;;;;;17.77;5.65;;;;;;;;;;4873335;29;20144;-63
2023/04/13 10:24:22;;;;;;;15.73;5.75;;;;;;;;;;4907331;29;20056;-63
2023/04/13 10:26:55;;;;;;;12.57;4.43;;;;;;;;;;4897855;29;20052;-63
2023/04/13 10:29:29;;;;;;;9.13;4.25;;;;;;;;;;4882701;29;20063;-63
2023/04/13 10:32:01;;;;;;;12.23;4.03;;;;;;;;;;4931750;29;20062;-63
2023/04/13 10:34:38;;;;;;;15.63;4.00;;;;;;;;;;4889583;29;20095;-62
2023/04/13 10:37:22;;;;;;;16.75;3.67;;;;;;;;;;4904992;29;20059;-63
2023/04/13 10:40:13;;;;;;;11.15;3.38;;;;;;;;;;4874220;29;20439;-63
2023/04/13 10:42:46;;;;;;;14.77;4.28;;;;;;;;;;4920863;29;20500;-62
2023/04/13 10:45:27;;;;;;;11.05;5.00;;;;;;;;;;4913647;29;20055;-63
2023/04/13 10:48:00;;;;;;;12.32;5.18;;;;;;;;;;4913715;29;20064;-63
2023/04/13 10:50:30;;;;;;;17.98;5.38;;;;;;;;;;4852089;29;20165;-63
2023/04/13 10:53:05;;;;;;;15.27;5.20;;;;;;;;;;4913738;29;20052;-62
2023/04/13 10:55:35;;;;;;;16.85;4.32;;;;;;;;;;4920424;28;20051;-62
2023/04/13 10:58:16;;;;;;;13.68;4.45;;;;;;;;;;4932354;29;20051;-62
2023/04/13 11:00:47;;;;;;;16.50;4.75;;;;;;;;;;4870286;29;20043;-63
2023/04/13 11:03:19;;;;;;;19.38;5.32;;;;;;;;;;4932371;29;20056;-64
2023/04/13 11:05:59;;;;;;;11.95;5.00;;;;;;;;;;4900867;29;20387;-62
2023/04/13 11:08:29;;;;;;;13.55;4.63;;;;;;;;;;4932368;29;20590;-62
2023/04/13 11:10:59;;;;;;;14.90;5.32;;;;;;;;;;4932546;29;20066;-63
2023/04/13 11:13:30;;;;;;;11.00;4.60;;;;;;;;;;4932358;29;20068;-63
2023/04/13 11:16:02;;;;;;;12.07;4.90;;;;;;;;;;4900979;29;20048;-63
2023/04/13 11:18:32;;;;;;;12.85;4.90;;;;;;;;;;4932298;29;20052;-64
2023/04/13 11:21:03;;;;;;;10.52;4.38;;;;;;;;;;4932504;29;21230;-64
2023/04/13 11:23:36;;;;;;;12.82;4.95;;;;;;;;;;4961734;28;20047;-63
2023/04/13 11:26:07;;;;;;;15.65;4.80;;;;;;;;;;4970704;28;20055;-63
2023/04/13 11:28:44;;;;;;;12.15;4.18;;;;;;;;;;4915310;28;20524;-64
2023/04/13 11:31:15;;;;;;;17.45;4.53;;;;;;;;;;4946647;28;20060;-63
2023/04/13 11:33:48;;;;;;;11.00;3.75;;;;;;;;;;5011869;28;20050;-63
2023/04/13 11:36:22;;;;;;;7.68;3.65;;;;;;;;;;5009729;28;20057;-64
2023/04/13 11:38:53;;;;;;;13.40;4.13;;;;;;;;;;5012041;28;20046;-63
2023/04/13 11:41:27;;;;;;;11.40;4.82;;;;;;;;;;4961454;28;20054;-64
2023/04/13 11:44:01;;;;;;;12.15;4.38;;;;;;;;;;5009699;28;20046;-63
2023/04/13 11:46:31;;;;;;;13.02;4.78;;;;;;;;;;5009704;28;20064;-63
2023/04/13 11:49:01;;;;;;;12.20;4.85;;;;;;;;;;5011714;28;20045;-63
2023/04/13 11:51:32;;;;;;;9.43;4.75;;;;;;;;;;4929981;28;20088;-63
2023/04/13 11:54:03;;;;;;;10.15;4.82;;;;;;;;;;5010534;28;20053;-63
2023/04/13 11:56:33;;;;;;;10.05;4.35;;;;;;;;;;4979836;28;20076;-64
2023/04/13 11:59:07;;;;;;;9.68;4.45;;;;;;;;;;5028251;28;20041;-63
2023/04/13 12:01:37;;;;;;;11.18;4.32;;;;;;;;;;4985405;28;20049;-63
2023/04/13 12:04:18;;;;;;;10.13;3.90;;;;;;;;;;5029758;28;20045;-63
2023/04/13 12:06:49;;;;;;;12.90;3.97;;;;;;;;;;4990267;28;20061;-62
2023/04/13 12:09:20;;;;;;;14.18;4.10;;;;;;;;;;4957128;28;20113;-63
2023/04/13 12:12:04;;;;;;;;;;;;;;;;;;4984149;28;20061;-63
2023/04/13 12:14:52;;;;;;;11.95;3.92;;;;;;;;;;4968656;28;19921;-63
2023/04/13 12:17:42;;;;;;;6.00;2.97;;;;;;;;;;4955768;28;20055;-64
2023/04/13 12:20:47;;;;;;;7.85;2.85;;;;;;;;;;4972207;28;20057;-63
2023/04/13 12:23:23;;;;;;;8.25;3.05;;;;;;;;;;4935524;28;20055;-62
2023/04/13 12:26:03;;;;;;;5.25;2.33;;;;;;;;;;4938996;28;20051;-61
2023/04/13 12:28:56;;;;;;;9.43;3.00;;;;;;;;;;4971244;28;20070;-63
2023/04/13 12:31:34;;;;;;;7.43;3.30;;;;;;;;;;4890394;29;20055;-63
2023/04/13 12:34:07;;;;;;;6.28;2.72;;;;;;;;;;4881068;29;20515;-63
2023/04/13 12:36:37;;;;;;;10.43;2.92;;;;;;;;;;4918823;29;20547;-63
2023/04/13 12:39:07;;;;;;;13.85;3.15;;;;;;;;;;4933324;29;20074;-63
2023/04/13 12:41:40;;;;;;;11.68;2.92;;;;;;;;;;4933690;29;20424;-62
2023/04/13 12:44:10;;;;;;;6.03;2.85;;;;;;;;;;4918382;29;20551;-63
2023/04/13 12:46:41;;;;;;;7.22;2.83;;;;;;;;;;4953880;28;20054;-63
2023/04/13 12:49:11;;;;;;;8.48;2.95;;;;;;;;;;4977934;28;20712;-63
2023/04/13 12:51:41;;;;;;;17.75;7.40;;;;;;;;;;5002381;28;20054;-63
2023/04/13 12:54:13;;;;;;;12.35;4.15;;;;;;;;;;4992712;28;20054;-62
2023/04/13 12:56:43;;;;;;;11.45;5.63;;;;;;;;;;4961032;28;20087;-64
2023/04/13 12:59:13;;;;;;;7.40;3.20;;;;;;;;;;4992718;28;20062;-62
2023/04/13 13:01:43;;;;;;;7.30;3.58;;;;;;;;;;4956740;28;20520;-63
2023/04/13 13:04:13;;;;;;;6.55;3.00;;;;;;;;;;4973068;28;20066;-63
2023/04/13 13:06:43;;;;;;;17.90;7.15;;;;;;;;;;4973281;28;20059;-63
2023/04/13 13:09:13;;;;;;;33.95;12.98;;;;;;;;;;4956921;28;20051;-63
2023/04/13 13:11:44;;;;;;;18.42;6.57;;;;;;;;;;4925462;28;20419;-63
2023/04/13 13:14:14;;;;;;;8.20;4.72;;;;;;;;;;4972808;28;20073;-63
2023/04/13 13:16:44;;;;;;;14.38;6.68;;;;;;;;;;4973193;28;20149;-62
2023/04/13 13:19:15;;;;;;;42.50;17.02;;;;;;;;;;4972412;28;20435;-62
2023/04/13 13:21:45;;;;;;;17.27;6.22;;;;;;;;;;4973001;28;20051;-63
2023/04/13 13:24:15;;;;;;;6.80;3.00;;;;;;;;;;4939806;28;20058;-64
2023/04/13 13:26:45;;;;;;;14.05;3.40;;;;;;;;;;4951158;28;20051;-64
2023/04/13 13:29:24;;;;;;;8.70;4.22;;;;;;;;;;4933763;29;20067;-63
2023/04/13 13:31:54;;;;;;;7.45;3.50;;;;;;;;;;4944206;28;20070;-63
2023/04/13 13:34:25;;;;;;;7.85;3.17;;;;;;;;;;4905758;28;20047;-63
2023/04/13 13:36:55;;;;;;;10.88;5.03;;;;;;;;;;4952901;28;20042;-62
2023/04/13 13:39:26;;;;;;;9.10;3.25;;;;;;;;;;4942897;28;20462;-62
2023/04/13 13:41:57;;;;;;;9.75;3.33;;;;;;;;;;4918301;29;20059;-62
2023/04/13 13:44:27;;;;;;;8.35;3.65;;;;;;;;;;4934140;29;20067;-62
2023/04/13 13:46:57;;;;;;;9.55;4.35;;;;;;;;;;4934121;29;20063;-62
2023/04/13 13:49:27;;;;;;;11.00;4.88;;;;;;;;;;4880539;29;20538;-63
2023/04/13 13:52:07;;;;;;;14.18;5.40;;;;;;;;;;4881327;29;20057;-62
2023/04/13 13:54:45;;;;;;;14.70;5.95;;;;;;;;;;4881215;29;20056;-62
2023/04/13 13:57:16;;;;;;;10.70;4.70;;;;;;;;;;4896081;29;20199;-63
2023/04/13 13:59:46;;;;;;;7.82;3.20;;;;;;;;;;4895892;29;20072;-62
2023/04/13 14:02:17;;;;;;;6.57;2.80;;;;;;;;;;4864649;29;20052;-62
2023/04/13 14:04:48;;;;;;;7.70;3.20;;;;;;;;;;4919381;29;20058;-62
2023/04/13 14:07:18;;;;;;;7.57;3.13;;;;;;;;;;4965941;28;20050;-62
2023/04/13 14:09:48;;;;;;;7.60;3.10;;;;;;;;;;4944389;28;20050;-63
2023/04/13 14:12:19;;;;;;;7.55;3.15;;;;;;;;;;4984033;28;20066;-62
2023/04/13 14:14:49;;;;;;;8.82;3.40;;;;;;;;;;4943168;28;20054;-63
2023/04/13 14:17:19;;;;;;;6.47;2.90;;;;;;;;;;4909088;28;20056;-62
2023/04/13 14:19:48;;;;;;;11.48;2.72;;;;;;;;;;4932797;29;20059;-62
2023/04/13 14:22:20;;;;;;;6.78;2.25;;;;;;;;;;4918881;29;20055;-63
2023/04/13 14:24:50;;;;;;;11.63;2.13;;;;;;;;;;4917231;29;20194;-63
2023/04/13 14:27:20;;;;;;;4.97;1.63;;;;;;;;;;4932925;29;20052;-63
2023/04/13 14:29:51;;;;;;;5.05;1.50;;;;;;;;;;4917303;29;20063;-63
2023/04/13 14:32:21;;;;;;;4.13;1.42;;;;;;;;;;4929157;28;20061;-63
2023/04/13 14:34:52;;;;;;;6.70;1.70;;;;;;;;;;4990674;28;20050;-63
2023/04/13 14:37:22;;;;;;;6.05;2.15;;;;;;;;;;4990824;28;20069;-63
2023/04/13 14:39:56;;;;;;;4.70;1.90;;;;;;;;;;4990344;28;20058;-63
2023/04/13 14:42:28;;;;;;;7.88;2.50;;;;;;;;;;4905510;28;20055;-63
2023/04/13 14:44:58;;;;;;;6.68;2.35;;;;;;;;;;4991151;28;20058;-62
2023/04/13 14:47:28;;;;;;;8.93;2.63;;;;;;;;;;4980588;28;20600;-67
2023/04/13 14:49:59;;;;;;;7.47;2.88;;;;;;;;;;4945286;28;20059;-62
2023/04/13 14:52:30;;;;;;;4.40;2.53;;;;;;;;;;4971115;28;20054;-63
2023/04/13 14:55:00;;;;;;;4.72;2.38;;;;;;;;;;4937031;28;20055;-62
2023/04/13 14:57:31;;;;;;;4.68;2.92;;;;;;;;;;5001516;28;20053;-62
2023/04/13 15:00:01;;;;;;;5.40;2.53;;;;;;;;;;5013495;28;20053;-61
2023/04/13 15:02:31;;;;;;;4.43;2.25;;;;;;;;;;5002961;28;20161;-63
2023/04/13 15:05:04;;;;;;;4.45;2.60;;;;;;;;;;4996662;28;20058;-63
2023/04/13 15:07:36;;;;;;;5.90;2.30;;;;;;;;;;4927582;28;20046;-62
2023/04/13 15:10:08;;;;;;;5.68;2.72;;;;;;;;;;4990190;28;20054;-63
2023/04/13 15:12:39;;;;;;;9.63;3.00;;;;;;;;;;4957771;28;20050;-63
2023/04/13 15:15:10;;;;;;;7.13;3.10;;;;;;;;;;4970356;28;20109;-62
2023/04/13 15:17:40;;;;;;;6.20;3.20;;;;;;;;;;4973824;28;20414;-62